SWA4157 KSAT-KELP
Flight info
| Callsign | SWA4157 |
|---|---|
| Flight time | 1h 15m |
| Altitude | 34000 |
| Route | ALISS7 ALISS FST TXSAS BEAHR3 |
| Aircraft | B738/M-SDE2E3FGHIRWXY/LB1 |
Departure
| Time | 2026-05-07 03:04 |
|---|---|
| Airport | San Antonio International Airport (KSAT) |
Arrival
| Time | 2026-05-07 04:19 |
|---|---|
| Airport | El Paso International Airport (KELP) |
| Time | Latitude | Longitude | Altitude | Speed | Heading |
|---|---|---|---|---|---|
| 2026-05-07 02:49 | 29.52727 | -98.46957 | 794 ft | 0 kts | 294° |
| 2026-05-07 02:58 | 29.52723 | -98.46946 | 793 ft | 3 kts | 294° |
| 2026-05-07 02:59 | 29.52715 | -98.46926 | 793 ft | 3 kts | 294° |
| 2026-05-07 02:59 | 29.52707 | -98.46907 | 791 ft | 3 kts | 294° |
| 2026-05-07 02:59 | 29.52699 | -98.46887 | 793 ft | 3 kts | 280° |
| 2026-05-07 02:59 | 29.52703 | -98.46867 | 792 ft | 3 kts | 216° |
| 2026-05-07 03:00 | 29.52706 | -98.46864 | 791 ft | 0 kts | 200° |
| 2026-05-07 03:01 | 29.52700 | -98.46871 | 793 ft | 3 kts | 223° |
| 2026-05-07 03:01 | 29.52679 | -98.46894 | 798 ft | 6 kts | 223° |
| 2026-05-07 03:01 | 29.52641 | -98.46935 | 798 ft | 9 kts | 223° |
| 2026-05-07 03:02 | 29.52587 | -98.46989 | 798 ft | 11 kts | 220° |
| 2026-05-07 03:02 | 29.52529 | -98.47046 | 798 ft | 11 kts | 221° |
| 2026-05-07 03:02 | 29.52462 | -98.47059 | 798 ft | 10 kts | 165° |
| 2026-05-07 03:02 | 29.52391 | -98.47059 | 798 ft | 9 kts | 167° |
| 2026-05-07 03:03 | 29.52348 | -98.47006 | 798 ft | 9 kts | 115° |
| 2026-05-07 03:03 | 29.52372 | -98.46943 | 798 ft | 9 kts | 41° |
| 2026-05-07 03:03 | 29.52488 | -98.46830 | 798 ft | 55 kts | 40° |
| 2026-05-07 03:03 | 29.52989 | -98.46336 | 798 ft | 131 kts | 42° |
| 2026-05-07 03:04 | 29.53791 | -98.45503 | 1149 ft | 164 kts | 43° |
| 2026-05-07 03:04 | 29.54550 | -98.44631 | 2169 ft | 156 kts | 43° |
| 2026-05-07 03:04 | 29.55344 | -98.43756 | 2806 ft | 161 kts | 43° |
| 2026-05-07 03:04 | 29.56258 | -98.42845 | 3282 ft | 192 kts | 39° |
| 2026-05-07 03:05 | 29.57388 | -98.41805 | 3525 ft | 224 kts | 38° |
| 2026-05-07 03:05 | 29.58696 | -98.40612 | 3796 ft | 254 kts | 38° |
| 2026-05-07 03:05 | 29.60305 | -98.39698 | 4520 ft | 266 kts | 7° |
| 2026-05-07 03:05 | 29.62135 | -98.39996 | 5436 ft | 272 kts | 333° |
| 2026-05-07 03:06 | 29.63611 | -98.41300 | 6547 ft | 268 kts | 311° |
| 2026-05-07 03:06 | 29.64755 | -98.42982 | 7519 ft | 268 kts | 303° |
| 2026-05-07 03:06 | 29.65815 | -98.44767 | 8502 ft | 271 kts | 301° |
| 2026-05-07 03:06 | 29.66849 | -98.46542 | 9541 ft | 270 kts | 301° |
| 2026-05-07 03:07 | 29.67904 | -98.48340 | 10454 ft | 275 kts | 300° |
| 2026-05-07 03:07 | 29.69022 | -98.50232 | 10776 ft | 300 kts | 300° |
| 2026-05-07 03:07 | 29.70253 | -98.52296 | 10961 ft | 326 kts | 301° |
| 2026-05-07 03:07 | 29.71586 | -98.54511 | 11202 ft | 346 kts | 301° |
| 2026-05-07 03:08 | 29.72984 | -98.56813 | 11775 ft | 353 kts | 301° |
| 2026-05-07 03:08 | 29.74393 | -98.59126 | 12591 ft | 353 kts | 301° |
| 2026-05-07 03:08 | 29.75799 | -98.61436 | 13425 ft | 353 kts | 300° |
| 2026-05-07 03:08 | 29.77209 | -98.63760 | 14116 ft | 355 kts | 300° |
| 2026-05-07 03:09 | 29.78656 | -98.66093 | 14689 ft | 362 kts | 301° |
| 2026-05-07 03:09 | 29.80236 | -98.68385 | 15238 ft | 368 kts | 303° |
| 2026-05-07 03:09 | 29.81879 | -98.70671 | 15811 ft | 373 kts | 303° |
| 2026-05-07 03:09 | 29.83551 | -98.72985 | 16375 ft | 379 kts | 304° |
| 2026-05-07 03:10 | 29.85244 | -98.75351 | 16862 ft | 386 kts | 303° |
| 2026-05-07 03:10 | 29.86949 | -98.77754 | 17466 ft | 389 kts | 303° |
| 2026-05-07 03:10 | 29.88662 | -98.80177 | 18079 ft | 392 kts | 303° |
| 2026-05-07 03:10 | 29.90393 | -98.82624 | 18585 ft | 396 kts | 303° |
| 2026-05-07 03:11 | 29.92145 | -98.85096 | 19081 ft | 399 kts | 303° |
| 2026-05-07 03:11 | 29.93907 | -98.87581 | 19619 ft | 401 kts | 303° |
| 2026-05-07 03:11 | 29.95678 | -98.90080 | 20132 ft | 404 kts | 302° |
| 2026-05-07 03:11 | 29.97462 | -98.92598 | 20633 ft | 407 kts | 302° |
| 2026-05-07 03:12 | 29.99259 | -98.95138 | 21118 ft | 409 kts | 302° |
| 2026-05-07 03:12 | 30.01064 | -98.97691 | 21596 ft | 412 kts | 302° |
| 2026-05-07 03:12 | 30.02882 | -99.00264 | 22058 ft | 415 kts | 302° |
| 2026-05-07 03:12 | 30.04711 | -99.02854 | 22521 ft | 418 kts | 302° |
| 2026-05-07 03:13 | 30.06553 | -99.05464 | 22972 ft | 420 kts | 302° |
| 2026-05-07 03:13 | 30.08403 | -99.08088 | 23405 ft | 423 kts | 302° |
| 2026-05-07 03:13 | 30.10125 | -99.10802 | 24063 ft | 410 kts | 294° |
| 2026-05-07 03:13 | 30.11442 | -99.13632 | 24583 ft | 404 kts | 288° |
| 2026-05-07 03:14 | 30.12431 | -99.16706 | 24798 ft | 403 kts | 280° |
| 2026-05-07 03:14 | 30.13153 | -99.19851 | 25047 ft | 407 kts | 279° |
| 2026-05-07 03:14 | 30.14595 | -99.26196 | 25752 ft | 410 kts | 279° |
| 2026-05-07 03:15 | 30.15326 | -99.29385 | 26078 ft | 412 kts | 279° |
| 2026-05-07 03:15 | 30.16063 | -99.32590 | 26373 ft | 414 kts | 279° |
| 2026-05-07 03:15 | 30.16807 | -99.35811 | 26660 ft | 416 kts | 279° |
| 2026-05-07 03:15 | 30.17547 | -99.39010 | 26958 ft | 418 kts | 279° |
| 2026-05-07 03:16 | 30.18300 | -99.42260 | 27255 ft | 420 kts | 279° |
| 2026-05-07 03:16 | 30.19056 | -99.45523 | 27540 ft | 422 kts | 279° |
| 2026-05-07 03:16 | 30.19815 | -99.48805 | 27847 ft | 423 kts | 278° |
| 2026-05-07 03:16 | 30.20575 | -99.52089 | 28231 ft | 422 kts | 278° |
| 2026-05-07 03:17 | 30.21331 | -99.55360 | 28689 ft | 420 kts | 278° |
| 2026-05-07 03:17 | 30.22084 | -99.58615 | 29150 ft | 418 kts | 278° |
| 2026-05-07 03:17 | 30.22832 | -99.61862 | 29557 ft | 418 kts | 278° |
| 2026-05-07 03:17 | 30.23578 | -99.65109 | 29993 ft | 417 kts | 278° |
| 2026-05-07 03:18 | 30.24321 | -99.68344 | 30397 ft | 416 kts | 277° |
| 2026-05-07 03:18 | 30.25061 | -99.71563 | 30862 ft | 412 kts | 277° |
| 2026-05-07 03:18 | 30.25793 | -99.74751 | 31384 ft | 408 kts | 277° |
| 2026-05-07 03:18 | 30.26517 | -99.77906 | 31911 ft | 404 kts | 277° |
| 2026-05-07 03:19 | 30.27233 | -99.81036 | 32392 ft | 401 kts | 277° |
| 2026-05-07 03:19 | 30.27941 | -99.84138 | 32869 ft | 398 kts | 277° |
| 2026-05-07 03:19 | 30.28645 | -99.87229 | 33273 ft | 397 kts | 277° |
| 2026-05-07 03:19 | 30.29345 | -99.90311 | 33653 ft | 396 kts | 277° |
| 2026-05-07 03:20 | 30.30045 | -99.93394 | 33994 ft | 396 kts | 277° |
| 2026-05-07 03:20 | 30.31454 | -99.99623 | 33976 ft | 400 kts | 277° |
| 2026-05-07 03:21 | 30.32853 | -100.05784 | 33964 ft | 392 kts | 277° |
| 2026-05-07 03:21 | 30.34235 | -100.11897 | 33964 ft | 393 kts | 277° |
| 2026-05-07 03:22 | 30.35614 | -100.18027 | 33959 ft | 394 kts | 277° |
| 2026-05-07 03:22 | 30.36996 | -100.24178 | 33956 ft | 396 kts | 277° |
| 2026-05-07 03:23 | 30.38381 | -100.30354 | 33952 ft | 397 kts | 277° |
| 2026-05-07 03:23 | 30.39769 | -100.36551 | 33976 ft | 398 kts | 277° |
| 2026-05-07 03:24 | 30.41156 | -100.42763 | 33998 ft | 399 kts | 277° |
| 2026-05-07 03:24 | 30.42533 | -100.48943 | 34022 ft | 399 kts | 277° |
| 2026-05-07 03:25 | 30.43917 | -100.55169 | 34040 ft | 399 kts | 277° |
| 2026-05-07 03:25 | 30.45299 | -100.61402 | 34061 ft | 400 kts | 277° |
| 2026-05-07 03:26 | 30.46680 | -100.67644 | 34070 ft | 400 kts | 277° |
| 2026-05-07 03:26 | 30.48058 | -100.73889 | 34064 ft | 400 kts | 277° |
| 2026-05-07 03:27 | 30.49433 | -100.80137 | 34047 ft | 400 kts | 277° |
| 2026-05-07 03:27 | 30.50805 | -100.86387 | 34054 ft | 400 kts | 276° |
| 2026-05-07 03:28 | 30.52175 | -100.92643 | 34006 ft | 400 kts | 276° |
| 2026-05-07 03:28 | 30.53543 | -100.98903 | 33982 ft | 400 kts | 276° |
| 2026-05-07 03:29 | 30.54907 | -101.05164 | 34000 ft | 400 kts | 276° |
| 2026-05-07 03:29 | 30.56269 | -101.11426 | 34017 ft | 400 kts | 276° |
| 2026-05-07 03:30 | 30.57626 | -101.17685 | 34033 ft | 400 kts | 276° |
| 2026-05-07 03:30 | 30.58980 | -101.23945 | 34038 ft | 400 kts | 276° |
| 2026-05-07 03:31 | 30.60103 | -101.29146 | 33946 ft | 399 kts | 276° |
| 2026-05-07 03:31 | 30.61449 | -101.35395 | 33945 ft | 399 kts | 276° |
| 2026-05-07 03:32 | 30.62789 | -101.41633 | 33940 ft | 398 kts | 276° |
| 2026-05-07 03:32 | 30.64121 | -101.47850 | 33933 ft | 396 kts | 276° |
| 2026-05-07 03:33 | 30.65447 | -101.54054 | 33936 ft | 395 kts | 276° |
| 2026-05-07 03:33 | 30.66766 | -101.60241 | 33939 ft | 394 kts | 276° |
| 2026-05-07 03:34 | 30.68079 | -101.66423 | 33934 ft | 394 kts | 276° |
| 2026-05-07 03:34 | 30.69390 | -101.72602 | 33935 ft | 394 kts | 276° |
| 2026-05-07 03:35 | 30.70695 | -101.78768 | 33967 ft | 393 kts | 275° |
| 2026-05-07 03:35 | 30.71996 | -101.84932 | 33937 ft | 392 kts | 275° |
| 2026-05-07 03:36 | 30.73289 | -101.91072 | 33922 ft | 390 kts | 275° |
| 2026-05-07 03:36 | 30.74574 | -101.97188 | 33917 ft | 389 kts | 275° |
| 2026-05-07 03:37 | 30.75853 | -102.03294 | 33924 ft | 388 kts | 275° |
| 2026-05-07 03:37 | 30.77126 | -102.09391 | 33920 ft | 388 kts | 275° |
| 2026-05-07 03:38 | 30.78387 | -102.15444 | 33914 ft | 388 kts | 275° |
| 2026-05-07 03:38 | 30.79650 | -102.21514 | 33909 ft | 387 kts | 275° |
| 2026-05-07 03:39 | 30.80911 | -102.27596 | 33905 ft | 387 kts | 275° |
| 2026-05-07 03:39 | 30.82170 | -102.33681 | 33905 ft | 387 kts | 275° |
| 2026-05-07 03:40 | 30.83426 | -102.39772 | 33897 ft | 387 kts | 275° |
| 2026-05-07 03:40 | 30.84681 | -102.45871 | 33907 ft | 387 kts | 275° |
| 2026-05-07 03:41 | 30.85934 | -102.51972 | 33911 ft | 388 kts | 275° |
| 2026-05-07 03:41 | 30.87184 | -102.58078 | 33933 ft | 388 kts | 275° |
| 2026-05-07 03:42 | 30.88422 | -102.64140 | 33956 ft | 389 kts | 275° |
| 2026-05-07 03:42 | 30.89671 | -102.70271 | 34032 ft | 389 kts | 274° |
| 2026-05-07 03:43 | 30.90928 | -102.76456 | 34008 ft | 390 kts | 274° |
| 2026-05-07 03:43 | 30.92164 | -102.82553 | 34022 ft | 389 kts | 274° |
| 2026-05-07 03:44 | 30.93410 | -102.88711 | 34015 ft | 387 kts | 274° |
| 2026-05-07 03:44 | 30.94026 | -102.91763 | 33886 ft | 386 kts | 274° |
| 2026-05-07 03:44 | 30.94631 | -102.94765 | 33888 ft | 386 kts | 274° |
| 2026-05-07 03:45 | 30.96256 | -103.00778 | 33895 ft | 395 kts | 282° |
| 2026-05-07 03:45 | 30.98344 | -103.06689 | 33886 ft | 394 kts | 282° |
| 2026-05-07 03:46 | 31.00418 | -103.12590 | 33883 ft | 393 kts | 282° |
| 2026-05-07 03:46 | 31.02477 | -103.18497 | 33891 ft | 393 kts | 282° |
| 2026-05-07 03:47 | 31.04524 | -103.24394 | 33887 ft | 392 kts | 282° |
| 2026-05-07 03:47 | 31.06564 | -103.30285 | 33882 ft | 391 kts | 282° |
| 2026-05-07 03:48 | 31.08595 | -103.36162 | 33903 ft | 390 kts | 281° |
| 2026-05-07 03:48 | 31.10621 | -103.42036 | 33957 ft | 391 kts | 281° |
| 2026-05-07 03:49 | 31.12646 | -103.47918 | 33950 ft | 390 kts | 281° |
| 2026-05-07 03:49 | 31.14668 | -103.53799 | 33955 ft | 390 kts | 281° |
| 2026-05-07 03:50 | 31.16687 | -103.59682 | 33950 ft | 390 kts | 281° |
| 2026-05-07 03:50 | 31.18699 | -103.65555 | 33959 ft | 390 kts | 281° |
| 2026-05-07 03:51 | 31.20710 | -103.71438 | 33953 ft | 390 kts | 281° |
| 2026-05-07 03:51 | 31.22717 | -103.77317 | 33938 ft | 390 kts | 281° |
| 2026-05-07 03:52 | 31.24710 | -103.83165 | 33927 ft | 390 kts | 281° |
| 2026-05-07 03:52 | 31.26713 | -103.89054 | 33903 ft | 390 kts | 281° |
| 2026-05-07 03:53 | 31.28717 | -103.94955 | 33915 ft | 391 kts | 281° |
| 2026-05-07 03:53 | 31.30722 | -104.00873 | 33957 ft | 392 kts | 281° |
| 2026-05-07 03:54 | 31.32733 | -104.06816 | 33926 ft | 393 kts | 281° |
| 2026-05-07 03:54 | 31.34743 | -104.12765 | 33926 ft | 393 kts | 281° |
| 2026-05-07 03:55 | 31.36745 | -104.18700 | 33926 ft | 392 kts | 281° |
| 2026-05-07 03:55 | 31.38740 | -104.24628 | 33930 ft | 391 kts | 281° |
| 2026-05-07 03:56 | 31.40730 | -104.30551 | 33934 ft | 391 kts | 281° |
| 2026-05-07 03:56 | 31.42714 | -104.36466 | 33936 ft | 390 kts | 281° |
| 2026-05-07 03:57 | 31.44667 | -104.42382 | 33930 ft | 386 kts | 278° |
| 2026-05-07 03:57 | 31.45375 | -104.45402 | 33386 ft | 381 kts | 272° |
| 2026-05-07 03:57 | 31.45729 | -104.48426 | 32819 ft | 372 kts | 269° |
| 2026-05-07 03:57 | 31.46029 | -104.51403 | 32373 ft | 365 kts | 269° |
| 2026-05-07 03:58 | 31.46327 | -104.54338 | 31911 ft | 360 kts | 269° |
| 2026-05-07 03:58 | 31.46623 | -104.57227 | 31481 ft | 355 kts | 269° |
| 2026-05-07 03:58 | 31.46917 | -104.60076 | 31032 ft | 350 kts | 269° |
| 2026-05-07 03:58 | 31.47208 | -104.62896 | 30607 ft | 347 kts | 269° |
| 2026-05-07 03:59 | 31.47497 | -104.65684 | 30178 ft | 344 kts | 269° |
| 2026-05-07 03:59 | 31.47782 | -104.68450 | 29697 ft | 341 kts | 269° |
| 2026-05-07 03:59 | 31.48065 | -104.71187 | 29217 ft | 337 kts | 269° |
| 2026-05-07 03:59 | 31.48345 | -104.73892 | 28786 ft | 332 kts | 270° |
| 2026-05-07 04:00 | 31.48621 | -104.76569 | 28362 ft | 329 kts | 270° |
| 2026-05-07 04:00 | 31.48894 | -104.79211 | 27924 ft | 326 kts | 270° |
| 2026-05-07 04:00 | 31.49164 | -104.81869 | 27503 ft | 333 kts | 270° |
| 2026-05-07 04:00 | 31.49439 | -104.84619 | 27065 ft | 345 kts | 270° |
| 2026-05-07 04:01 | 31.49723 | -104.87413 | 26600 ft | 344 kts | 271° |
| 2026-05-07 04:01 | 31.50008 | -104.90172 | 26155 ft | 338 kts | 271° |
| 2026-05-07 04:01 | 31.50285 | -104.92856 | 25739 ft | 333 kts | 271° |
| 2026-05-07 04:01 | 31.50560 | -104.95533 | 25303 ft | 329 kts | 271° |
| 2026-05-07 04:02 | 31.50831 | -104.98185 | 24916 ft | 327 kts | 271° |
| 2026-05-07 04:02 | 31.51098 | -105.00824 | 24457 ft | 326 kts | 271° |
| 2026-05-07 04:02 | 31.51363 | -105.03447 | 24048 ft | 323 kts | 271° |
| 2026-05-07 04:02 | 31.51624 | -105.06027 | 23645 ft | 320 kts | 272° |
| 2026-05-07 04:03 | 31.51884 | -105.08610 | 23160 ft | 319 kts | 272° |
| 2026-05-07 04:03 | 31.52142 | -105.11176 | 22714 ft | 316 kts | 272° |
| 2026-05-07 04:03 | 31.52398 | -105.13729 | 22157 ft | 317 kts | 272° |
| 2026-05-07 04:03 | 31.52652 | -105.16261 | 21860 ft | 312 kts | 272° |
| 2026-05-07 04:04 | 31.52903 | -105.18777 | 21505 ft | 310 kts | 272° |
| 2026-05-07 04:04 | 31.53154 | -105.21309 | 21099 ft | 317 kts | 272° |
| 2026-05-07 04:04 | 31.53412 | -105.23938 | 20693 ft | 331 kts | 272° |
| 2026-05-07 04:04 | 31.53678 | -105.26638 | 20251 ft | 333 kts | 273° |
| 2026-05-07 04:05 | 31.53946 | -105.29324 | 19821 ft | 330 kts | 273° |
| 2026-05-07 04:05 | 31.54211 | -105.31981 | 19405 ft | 327 kts | 273° |
| 2026-05-07 04:05 | 31.54473 | -105.34621 | 18992 ft | 325 kts | 274° |
| 2026-05-07 04:05 | 31.54732 | -105.37242 | 18578 ft | 323 kts | 274° |
| 2026-05-07 04:06 | 31.54988 | -105.39848 | 18151 ft | 321 kts | 274° |
| 2026-05-07 04:06 | 31.55243 | -105.42442 | 17711 ft | 319 kts | 274° |
| 2026-05-07 04:06 | 31.55495 | -105.45016 | 17296 ft | 317 kts | 274° |
| 2026-05-07 04:06 | 31.55746 | -105.47579 | 16838 ft | 316 kts | 273° |
| 2026-05-07 04:07 | 31.55994 | -105.50125 | 16439 ft | 314 kts | 273° |
| 2026-05-07 04:07 | 31.56241 | -105.52658 | 16040 ft | 312 kts | 273° |
| 2026-05-07 04:07 | 31.56486 | -105.55184 | 15664 ft | 313 kts | 272° |
| 2026-05-07 04:07 | 31.56731 | -105.57720 | 15277 ft | 314 kts | 272° |
| 2026-05-07 04:08 | 31.56978 | -105.60288 | 14897 ft | 321 kts | 272° |
| 2026-05-07 04:08 | 31.57230 | -105.62911 | 14498 ft | 325 kts | 272° |
| 2026-05-07 04:08 | 31.57483 | -105.65539 | 14084 ft | 324 kts | 272° |
| 2026-05-07 04:08 | 31.57736 | -105.68158 | 13668 ft | 322 kts | 272° |
| 2026-05-07 04:09 | 31.57985 | -105.70751 | 13233 ft | 319 kts | 272° |
| 2026-05-07 04:09 | 31.58232 | -105.73325 | 12823 ft | 316 kts | 272° |
| 2026-05-07 04:09 | 31.58475 | -105.75871 | 12432 ft | 313 kts | 272° |
| 2026-05-07 04:09 | 31.58716 | -105.78395 | 12028 ft | 310 kts | 274° |
| 2026-05-07 04:10 | 31.59289 | -105.80832 | 11686 ft | 314 kts | 292° |
| 2026-05-07 04:10 | 31.60357 | -105.83036 | 11412 ft | 315 kts | 296° |
| 2026-05-07 04:10 | 31.61483 | -105.85243 | 11101 ft | 315 kts | 297° |
| 2026-05-07 04:10 | 31.62597 | -105.87424 | 10807 ft | 309 kts | 297° |
| 2026-05-07 04:11 | 31.63681 | -105.89558 | 10492 ft | 301 kts | 297° |
| 2026-05-07 04:11 | 31.64737 | -105.91654 | 10204 ft | 296 kts | 298° |
| 2026-05-07 04:11 | 31.65775 | -105.93724 | 9905 ft | 292 kts | 298° |
| 2026-05-07 04:11 | 31.66790 | -105.95754 | 9787 ft | 282 kts | 298° |
| 2026-05-07 04:12 | 31.67758 | -105.97688 | 9771 ft | 268 kts | 298° |
| 2026-05-07 04:12 | 31.68708 | -105.99594 | 9218 ft | 274 kts | 298° |
| 2026-05-07 04:12 | 31.69665 | -106.01518 | 8841 ft | 272 kts | 299° |
| 2026-05-07 04:12 | 31.70610 | -106.03413 | 8580 ft | 266 kts | 299° |
| 2026-05-07 04:13 | 31.71534 | -106.05267 | 8319 ft | 260 kts | 299° |
| 2026-05-07 04:13 | 31.72438 | -106.07080 | 8063 ft | 254 kts | 299° |
| 2026-05-07 04:13 | 31.73336 | -106.08825 | 7929 ft | 244 kts | 305° |
| 2026-05-07 04:13 | 31.74393 | -106.10315 | 7899 ft | 231 kts | 311° |
| 2026-05-07 04:14 | 31.75463 | -106.11700 | 7907 ft | 227 kts | 311° |
| 2026-05-07 04:14 | 31.76517 | -106.13081 | 7927 ft | 228 kts | 310° |
| 2026-05-07 04:14 | 31.77570 | -106.14480 | 7931 ft | 229 kts | 310° |
| 2026-05-07 04:14 | 31.78619 | -106.15884 | 7942 ft | 228 kts | 310° |
| 2026-05-07 04:15 | 31.79666 | -106.17291 | 7952 ft | 229 kts | 310° |
| 2026-05-07 04:15 | 31.80730 | -106.18720 | 7681 ft | 238 kts | 310° |
| 2026-05-07 04:15 | 31.81820 | -106.20185 | 7357 ft | 238 kts | 310° |
| 2026-05-07 04:15 | 31.82911 | -106.21653 | 7022 ft | 238 kts | 310° |
| 2026-05-07 04:16 | 31.83993 | -106.23109 | 6720 ft | 234 kts | 310° |
| 2026-05-07 04:16 | 31.85035 | -106.24511 | 6384 ft | 226 kts | 310° |
| 2026-05-07 04:16 | 31.86031 | -106.25864 | 6065 ft | 211 kts | 307° |
| 2026-05-07 04:16 | 31.86751 | -106.27295 | 5762 ft | 199 kts | 287° |
| 2026-05-07 04:17 | 31.86944 | -106.28854 | 5608 ft | 187 kts | 269° |
| 2026-05-07 04:17 | 31.86730 | -106.30289 | 5418 ft | 171 kts | 251° |
| 2026-05-07 04:17 | 31.86189 | -106.31449 | 5271 ft | 154 kts | 237° |
| 2026-05-07 04:17 | 31.85532 | -106.32471 | 5047 ft | 159 kts | 232° |
| 2026-05-07 04:18 | 31.84825 | -106.33467 | 4787 ft | 158 kts | 231° |
| 2026-05-07 04:18 | 31.84113 | -106.34451 | 4625 ft | 159 kts | 231° |
| 2026-05-07 04:18 | 31.83397 | -106.35443 | 4410 ft | 157 kts | 232° |
| 2026-05-07 04:18 | 31.82705 | -106.36432 | 4145 ft | 157 kts | 231° |
| 2026-05-07 04:19 | 31.82030 | -106.37370 | 3957 ft | 140 kts | 232° |
| 2026-05-07 04:19 | 31.81486 | -106.38132 | 3946 ft | 100 kts | 231° |
| 2026-05-07 04:19 | 31.81136 | -106.38623 | 3948 ft | 57 kts | 230° |
| 2026-05-07 04:19 | 31.80910 | -106.38934 | 3948 ft | 44 kts | 230° |
| 2026-05-07 04:20 | 31.80708 | -106.39104 | 3946 ft | 33 kts | 202° |
| 2026-05-07 04:20 | 31.80535 | -106.39175 | 3946 ft | 25 kts | 200° |
| 2026-05-07 04:20 | 31.80384 | -106.39240 | 3946 ft | 21 kts | 200° |
| 2026-05-07 04:21 | 31.80200 | -106.39351 | 3946 ft | 15 kts | 218° |
| 2026-05-07 04:21 | 31.80159 | -106.39389 | 3946 ft | 4 kts | 218° |
| 2026-05-07 04:21 | 31.80146 | -106.39389 | 3946 ft | 1 kts | 157° |
| 2026-05-07 04:21 | 31.80140 | -106.39379 | 3946 ft | 2 kts | 116° |
| 2026-05-07 04:22 | 31.80132 | -106.39370 | 3946 ft | 2 kts | 111° |
| 2026-05-07 04:22 | 31.80132 | -106.39355 | 3946 ft | 2 kts | 92° |
| 2026-05-07 04:22 | 31.80131 | -106.39340 | 3946 ft | 2 kts | 92° |
| 2026-05-07 04:22 | 31.80132 | -106.39326 | 3946 ft | 2 kts | 87° |
| 2026-05-07 04:23 | 31.80133 | -106.39292 | 3946 ft | 7 kts | 86° |
| 2026-05-07 04:23 | 31.80129 | -106.39222 | 3946 ft | 9 kts | 110° |
| 2026-05-07 04:23 | 31.80090 | -106.39165 | 3946 ft | 9 kts | 142° |
| 2026-05-07 04:23 | 31.80033 | -106.39146 | 3946 ft | 9 kts | 179° |
| 2026-05-07 04:24 | 31.79979 | -106.39168 | 3946 ft | 8 kts | 212° |
| 2026-05-07 04:24 | 31.79951 | -106.39224 | 3946 ft | 8 kts | 260° |
| 2026-05-07 04:24 | 31.79966 | -106.39244 | 3946 ft | 3 kts | 348° |
| 2026-05-07 04:24 | 31.79986 | -106.39249 | 3946 ft | 3 kts | 347° |
| 2026-05-07 04:25 | 31.79997 | -106.39252 | 3946 ft | 0 kts | 347° |